CYVQCYEV [ZE999]

Details From CYVQ - NORMAN WELLS
To CYEV - INUVIK MIKE ZUBKO
Flight Number ZE999
Tags generated
Created
Modified
Stats Distance 243 nm / 450 km
Max Altitude 18,000 ft / 5,486 m
Waypoints 4
Social Downloads 1
Likes 0
Share VATSIM

Download

Looking for another format? Having issues loading an existing format? Contact us
Advertisement - Login to hide

Notes

Basic altitude profile: - Ascent Rate: 2000ft/min - Ascent Speed: 250kts - Cruise Altitude: 35000ft - Cruise Speed: 500kts - Descent Rate: 2000ft/min - Descent Speed: 250kts

Route

CYVQ YGH J516 YEV CYEV

ID Type Via Altitude Latitude Longitude Leg Dist Tot Dist Heading (true) Name
O CYVQ APT - 0 ft / 0 m 65.28162˚ -126.79822˚ - 0 nm - NORMAN WELLS
YGH VOR - 16,400 ft / 4,999 m 66.23628˚ -128.62306˚ 72 nm 72 nm 323° / 321° FORT GOOD HOPE VOR-DME
YEV VOR J516 (AWY-HI) 18,000 ft / 5,486 m 68.30806˚ -133.54825˚ 168 nm 241 nm 320° / 315° INUVIK VOR-DME
O CYEV APT - 0 ft / 0 m 68.30379˚ -133.48317˚ 1 nm 243 nm 100° / 100° INUVIK MIKE ZUBKO

Altitude Profile

Advertisement - Login to hide

Weather


0- 5 10 15 20 25 30 35+ Temperature / ° C

Clouds and Precipitation
Forecast for 2017-12-18 06:00 UTC. Updated 10 minutes ago

Ground ~20,000 ft ~40,000 ft Winds

CYVQ

Details ICAO CYVQ (YVQ)
Name NORMAN WELLS
Region Canada
Timezone America/Yellowknife (UTC-7.0)
Stats Elevation 238 ft / 73 m (AMSL)
Location 65.281616° -126.798222°
Runways 1
Magnetic Variation 21.028° E

METAR

CYVQ 180500Z 28013G19KT 6SM -SN DRSN FEW047 FEW059 SCT062 BKN071 OVC100 M15/M19 A2983 RMK SC1SC1SC2AC3AC1 SLP110

Decode

TAF

TAF CYVQ 172338Z 1800/1812 29015G25KT P6SM -SN OVC040 TEMPO 1800/1806 4SM -SN OVC020 FM180600 30012KT P6SM -SN BKN030 TEMPO 1806/1812 BKN020 RMK NXT FCST BY 180600Z

Decode

Departure Runways

ID Width Length Bearing (true) Bearing (mag) Surface Threshold Offset Overrun Length
09 150 ft / 46 m 5,977 ft / 1,822 m 118.74° 97.71° Asphalt 0 ft / 0 m 0 ft / 0 m
27 150 ft / 46 m 5,977 ft / 1,822 m 298.78° 277.75° Asphalt 0 ft / 0 m 0 ft / 0 m

CYEV

Details ICAO CYEV (YEV)
Name INUVIK MIKE ZUBKO
Region Canada
Timezone America/Inuvik (UTC-7.0)
Stats Elevation 224 ft / 68 m (AMSL)
Location 68.303792° -133.483167°
Runways 1
Magnetic Variation 21.594° E

METAR

CYEV 180500Z 32004KT 15SM -SN OVC012 M22/M25 A2993 RMK ST8 SLP145

Decode

TAF

TAF AMD TAF AMD CYEV 180310Z 1803/1813 32006KT P6SM -SN OVC007 TEMPO 1803/1807 P6SM NSW BKN010 FM180700 VRB03KT P6SM IC FEW030 RMK NXT FCST BY 180700Z

Decode

Destination Runways

ID Width Length Bearing (true) Bearing (mag) Surface Threshold Offset Overrun Length
06 150 ft / 46 m 5,982 ft / 1,823 m 85.80° 64.21° Asphalt 0 ft / 0 m 0 ft / 0 m
24 150 ft / 46 m 5,982 ft / 1,823 m 265.84° 244.25° Asphalt 0 ft / 0 m 0 ft / 0 m

Popular Alternatives